sensor_id;sensor_type;location;lat;lon;timestamp;P1;durP1;ratioP1;P2;durP2;ratioP2
13345;SDS011;6742;48.036;15.780;2023-04-03T00:00:59;2.40;;;2.20;;
13345;SDS011;6742;48.036;15.780;2023-04-03T00:03:26;2.63;;;2.20;;
13345;SDS011;6742;48.036;15.780;2023-04-03T00:05:54;2.75;;;2.15;;
13345;SDS011;6742;48.036;15.780;2023-04-03T00:08:21;3.83;;;2.17;;
13345;SDS011;6742;48.036;15.780;2023-04-03T00:10:48;2.83;;;2.27;;
13345;SDS011;6742;48.036;15.780;2023-04-03T00:13:15;2.50;;;2.30;;
13345;SDS011;6742;48.036;15.780;2023-04-03T00:15:42;3.47;;;2.50;;
13345;SDS011;6742;48.036;15.780;2023-04-03T00:18:09;2.43;;;2.23;;
13345;SDS011;6742;48.036;15.780;2023-04-03T00:20:37;2.50;;;2.30;;
13345;SDS011;6742;48.036;15.780;2023-04-03T00:23:05;3.47;;;2.65;;
13345;SDS011;6742;48.036;15.780;2023-04-03T00:25:32;2.53;;;2.33;;
13345;SDS011;6742;48.036;15.780;2023-04-03T00:27:59;2.43;;;2.23;;
13345;SDS011;6742;48.036;15.780;2023-04-03T00:30:26;2.65;;;2.45;;
13345;SDS011;6742;48.036;15.780;2023-04-03T00:32:53;4.93;;;2.80;;
13345;SDS011;6742;48.036;15.780;2023-04-03T00:35:20;2.60;;;2.40;;
13345;SDS011;6742;48.036;15.780;2023-04-03T00:37:50;2.37;;;2.10;;
13345;SDS011;6742;48.036;15.780;2023-04-03T00:40:19;2.53;;;2.33;;
13345;SDS011;6742;48.036;15.780;2023-04-03T00:42:48;2.80;;;2.27;;
13345;SDS011;6742;48.036;15.780;2023-04-03T00:45:26;2.70;;;2.40;;
13345;SDS011;6742;48.036;15.780;2023-04-03T00:47:58;2.58;;;2.20;;
13345;SDS011;6742;48.036;15.780;2023-04-03T00:50:27;3.03;;;2.15;;
13345;SDS011;6742;48.036;15.780;2023-04-03T00:52:58;2.67;;;2.10;;
13345;SDS011;6742;48.036;15.780;2023-04-03T00:55:27;2.63;;;2.42;;
13345;SDS011;6742;48.036;15.780;2023-04-03T00:57:55;2.40;;;2.20;;
13345;SDS011;6742;48.036;15.780;2023-04-03T01:00:23;3.92;;;2.40;;
13345;SDS011;6742;48.036;15.780;2023-04-03T01:02:51;2.67;;;2.45;;
13345;SDS011;6742;48.036;15.780;2023-04-03T01:05:19;2.53;;;2.22;;
13345;SDS011;6742;48.036;15.780;2023-04-03T01:07:47;2.60;;;2.40;;
13345;SDS011;6742;48.036;15.780;2023-04-03T01:10:15;3.00;;;2.70;;
13345;SDS011;6742;48.036;15.780;2023-04-03T01:12:47;3.00;;;2.30;;
13345;SDS011;6742;48.036;15.780;2023-04-03T01:15:16;2.50;;;2.03;;
13345;SDS011;6742;48.036;15.780;2023-04-03T01:17:45;3.00;;;2.20;;
13345;SDS011;6742;48.036;15.780;2023-04-03T01:20:30;3.20;;;2.20;;
13345;SDS011;6742;48.036;15.780;2023-04-03T01:23:21;3.00;;;2.50;;
13345;SDS011;6742;48.036;15.780;2023-04-03T01:25:58;4.47;;;3.13;;
13345;SDS011;6742;48.036;15.780;2023-04-03T01:28:28;2.80;;;2.50;;
13345;SDS011;6742;48.036;15.780;2023-04-03T01:30:59;2.42;;;2.22;;
13345;SDS011;6742;48.036;15.780;2023-04-03T01:33:33;3.10;;;2.30;;
13345;SDS011;6742;48.036;15.780;2023-04-03T01:36:00;2.30;;;2.10;;
13345;SDS011;6742;48.036;15.780;2023-04-03T01:38:27;3.57;;;2.73;;
13345;SDS011;6742;48.036;15.780;2023-04-03T01:40:54;2.38;;;2.17;;
13345;SDS011;6742;48.036;15.780;2023-04-03T01:43:21;2.28;;;2.08;;
13345;SDS011;6742;48.036;15.780;2023-04-03T01:45:48;2.47;;;2.28;;
13345;SDS011;6742;48.036;15.780;2023-04-03T01:48:17;2.60;;;2.40;;
13345;SDS011;6742;48.036;15.780;2023-04-03T01:50:46;2.58;;;2.38;;
13345;SDS011;6742;48.036;15.780;2023-04-03T01:53:13;3.45;;;2.35;;
13345;SDS011;6742;48.036;15.780;2023-04-03T01:55:43;2.40;;;2.17;;
13345;SDS011;6742;48.036;15.780;2023-04-03T01:58:10;2.85;;;2.38;;
13345;SDS011;6742;48.036;15.780;2023-04-03T02:00:37;2.13;;;1.98;;
13345;SDS011;6742;48.036;15.780;2023-04-03T02:03:04;3.85;;;2.65;;
13345;SDS011;6742;48.036;15.780;2023-04-03T02:05:31;2.60;;;2.40;;
13345;SDS011;6742;48.036;15.780;2023-04-03T02:08:00;2.50;;;2.30;;
13345;SDS011;6742;48.036;15.780;2023-04-03T02:10:27;2.53;;;2.30;;
13345;SDS011;6742;48.036;15.780;2023-04-03T02:12:54;2.47;;;2.28;;
13345;SDS011;6742;48.036;15.780;2023-04-03T02:15:21;2.65;;;2.38;;
13345;SDS011;6742;48.036;15.780;2023-04-03T02:17:50;2.33;;;2.13;;
13345;SDS011;6742;48.036;15.780;2023-04-03T02:20:17;2.83;;;2.20;;
13345;SDS011;6742;48.036;15.780;2023-04-03T02:22:44;3.15;;;2.15;;
13345;SDS011;6742;48.036;15.780;2023-04-03T02:25:13;2.70;;;2.50;;
13345;SDS011;6742;48.036;15.780;2023-04-03T02:27:40;2.43;;;2.23;;
13345;SDS011;6742;48.036;15.780;2023-04-03T02:30:07;3.43;;;2.50;;
13345;SDS011;6742;48.036;15.780;2023-04-03T02:32:35;2.50;;;2.27;;
13345;SDS011;6742;48.036;15.780;2023-04-03T02:35:02;6.30;;;4.20;;
13345;SDS011;6742;48.036;15.780;2023-04-03T02:37:30;4.63;;;3.70;;
13345;SDS011;6742;48.036;15.780;2023-04-03T02:39:57;3.92;;;2.58;;
13345;SDS011;6742;48.036;15.780;2023-04-03T02:42:25;2.93;;;2.57;;
13345;SDS011;6742;48.036;15.780;2023-04-03T02:44:52;2.47;;;2.27;;
13345;SDS011;6742;48.036;15.780;2023-04-03T02:47:20;2.30;;;2.10;;
13345;SDS011;6742;48.036;15.780;2023-04-03T02:49:47;2.63;;;2.37;;
13345;SDS011;6742;48.036;15.780;2023-04-03T02:52:14;2.65;;;2.42;;
13345;SDS011;6742;48.036;15.780;2023-04-03T02:54:41;3.27;;;2.63;;
13345;SDS011;6742;48.036;15.780;2023-04-03T02:57:08;3.03;;;2.60;;
13345;SDS011;6742;48.036;15.780;2023-04-03T02:59:36;3.00;;;2.70;;
13345;SDS011;6742;48.036;15.780;2023-04-03T03:02:05;3.37;;;2.70;;
13345;SDS011;6742;48.036;15.780;2023-04-03T03:04:32;3.05;;;2.30;;
13345;SDS011;6742;48.036;15.780;2023-04-03T03:06:59;3.10;;;2.53;;
13345;SDS011;6742;48.036;15.780;2023-04-03T03:09:26;3.53;;;2.38;;
13345;SDS011;6742;48.036;15.780;2023-04-03T03:11:54;3.00;;;2.67;;
13345;SDS011;6742;48.036;15.780;2023-04-03T03:14:21;2.53;;;2.33;;
13345;SDS011;6742;48.036;15.780;2023-04-03T03:16:49;2.87;;;2.57;;
13345;SDS011;6742;48.036;15.780;2023-04-03T03:19:16;2.93;;;2.63;;
13345;SDS011;6742;48.036;15.780;2023-04-03T03:21:43;2.63;;;2.43;;
13345;SDS011;6742;48.036;15.780;2023-04-03T03:24:10;2.90;;;2.67;;
13345;SDS011;6742;48.036;15.780;2023-04-03T03:26:38;2.70;;;2.50;;
13345;SDS011;6742;48.036;15.780;2023-04-03T03:29:05;2.70;;;2.50;;
13345;SDS011;6742;48.036;15.780;2023-04-03T03:31:31;2.60;;;2.40;;
13345;SDS011;6742;48.036;15.780;2023-04-03T03:34:02;2.93;;;2.43;;
13345;SDS011;6742;48.036;15.780;2023-04-03T03:36:29;2.93;;;2.60;;
13345;SDS011;6742;48.036;15.780;2023-04-03T03:38:56;2.85;;;2.65;;
13345;SDS011;6742;48.036;15.780;2023-04-03T03:41:23;3.33;;;2.75;;
13345;SDS011;6742;48.036;15.780;2023-04-03T03:43:50;3.70;;;2.40;;
13345;SDS011;6742;48.036;15.780;2023-04-03T03:46:18;3.13;;;2.57;;
13345;SDS011;6742;48.036;15.780;2023-04-03T03:48:45;2.67;;;2.47;;
13345;SDS011;6742;48.036;15.780;2023-04-03T03:51:14;3.47;;;2.55;;
13345;SDS011;6742;48.036;15.780;2023-04-03T03:53:41;3.00;;;2.60;;
13345;SDS011;6742;48.036;15.780;2023-04-03T03:56:08;3.43;;;2.47;;
13345;SDS011;6742;48.036;15.780;2023-04-03T03:58:35;3.33;;;2.93;;
13345;SDS011;6742;48.036;15.780;2023-04-03T04:01:02;2.80;;;2.60;;
13345;SDS011;6742;48.036;15.780;2023-04-03T04:03:30;3.80;;;2.90;;
13345;SDS011;6742;48.036;15.780;2023-04-03T04:05:58;2.83;;;2.63;;
13345;SDS011;6742;48.036;15.780;2023-04-03T04:08:26;3.92;;;2.55;;
13345;SDS011;6742;48.036;15.780;2023-04-03T04:10:53;3.60;;;2.60;;
13345;SDS011;6742;48.036;15.780;2023-04-03T04:13:20;3.10;;;2.80;;
13345;SDS011;6742;48.036;15.780;2023-04-03T04:15:47;3.67;;;2.87;;
13345;SDS011;6742;48.036;15.780;2023-04-03T04:18:14;3.75;;;2.97;;
13345;SDS011;6742;48.036;15.780;2023-04-03T04:20:44;4.85;;;2.70;;
13345;SDS011;6742;48.036;15.780;2023-04-03T04:23:11;3.30;;;3.00;;
13345;SDS011;6742;48.036;15.780;2023-04-03T04:25:39;3.58;;;2.95;;
13345;SDS011;6742;48.036;15.780;2023-04-03T04:28:06;3.03;;;2.83;;
13345;SDS011;6742;48.036;15.780;2023-04-03T04:30:33;3.73;;;2.80;;
13345;SDS011;6742;48.036;15.780;2023-04-03T04:33:02;3.53;;;2.97;;
13345;SDS011;6742;48.036;15.780;2023-04-03T04:35:30;3.13;;;2.83;;
13345;SDS011;6742;48.036;15.780;2023-04-03T04:37:57;3.63;;;3.00;;
13345;SDS011;6742;48.036;15.780;2023-04-03T04:40:24;3.35;;;2.95;;
13345;SDS011;6742;48.036;15.780;2023-04-03T04:42:53;3.43;;;3.03;;
13345;SDS011;6742;48.036;15.780;2023-04-03T04:45:20;3.30;;;3.00;;
13345;SDS011;6742;48.036;15.780;2023-04-03T04:47:47;3.23;;;2.60;;
13345;SDS011;6742;48.036;15.780;2023-04-03T04:50:16;3.20;;;2.70;;
13345;SDS011;6742;48.036;15.780;2023-04-03T04:52:43;3.50;;;2.50;;
13345;SDS011;6742;48.036;15.780;2023-04-03T04:55:10;3.40;;;3.10;;
13345;SDS011;6742;48.036;15.780;2023-04-03T04:57:37;3.65;;;3.10;;
13345;SDS011;6742;48.036;15.780;2023-04-03T05:00:06;3.10;;;2.80;;
13345;SDS011;6742;48.036;15.780;2023-04-03T05:02:34;3.27;;;2.90;;
13345;SDS011;6742;48.036;15.780;2023-04-03T05:05:01;3.97;;;2.87;;
13345;SDS011;6742;48.036;15.780;2023-04-03T05:07:28;4.37;;;3.03;;
13345;SDS011;6742;48.036;15.780;2023-04-03T05:09:55;3.10;;;2.80;;
13345;SDS011;6742;48.036;15.780;2023-04-03T05:12:23;3.30;;;2.87;;
13345;SDS011;6742;48.036;15.780;2023-04-03T05:14:50;4.90;;;3.13;;
13345;SDS011;6742;48.036;15.780;2023-04-03T05:17:18;3.75;;;2.63;;
13345;SDS011;6742;48.036;15.780;2023-04-03T05:19:45;3.30;;;2.70;;
13345;SDS011;6742;48.036;15.780;2023-04-03T05:22:12;4.22;;;2.97;;
13345;SDS011;6742;48.036;15.780;2023-04-03T05:24:40;7.60;;;3.17;;
13345;SDS011;6742;48.036;15.780;2023-04-03T05:27:07;3.90;;;3.30;;
13345;SDS011;6742;48.036;15.780;2023-04-03T05:29:34;2.90;;;2.70;;
13345;SDS011;6742;48.036;15.780;2023-04-03T05:32:00;3.10;;;2.80;;
13345;SDS011;6742;48.036;15.780;2023-04-03T05:34:31;4.37;;;3.37;;
13345;SDS011;6742;48.036;15.780;2023-04-03T05:36:58;5.13;;;3.30;;
13345;SDS011;6742;48.036;15.780;2023-04-03T05:39:26;3.63;;;2.60;;
13345;SDS011;6742;48.036;15.780;2023-04-03T05:41:53;3.30;;;3.00;;
13345;SDS011;6742;48.036;15.780;2023-04-03T05:44:20;3.30;;;3.00;;
13345;SDS011;6742;48.036;15.780;2023-04-03T05:46:47;3.40;;;2.97;;
13345;SDS011;6742;48.036;15.780;2023-04-03T05:49:14;3.05;;;2.75;;
13345;SDS011;6742;48.036;15.780;2023-04-03T05:51:42;4.72;;;2.75;;
13345;SDS011;6742;48.036;15.780;2023-04-03T05:54:10;3.60;;;3.00;;
13345;SDS011;6742;48.036;15.780;2023-04-03T05:56:42;5.55;;;2.88;;
13345;SDS011;6742;48.036;15.780;2023-04-03T05:59:09;6.67;;;4.03;;
13345;SDS011;6742;48.036;15.780;2023-04-03T06:01:36;5.97;;;3.40;;
13345;SDS011;6742;48.036;15.780;2023-04-03T06:04:03;5.80;;;3.30;;
13345;SDS011;6742;48.036;15.780;2023-04-03T06:06:44;6.20;;;4.18;;
13345;SDS011;6742;48.036;15.780;2023-04-03T06:09:16;5.20;;;3.93;;
13345;SDS011;6742;48.036;15.780;2023-04-03T06:11:44;4.93;;;3.43;;
13345;SDS011;6742;48.036;15.780;2023-04-03T06:14:11;4.30;;;3.23;;
13345;SDS011;6742;48.036;15.780;2023-04-03T06:16:38;3.33;;;2.73;;
13345;SDS011;6742;48.036;15.780;2023-04-03T06:19:05;4.20;;;2.90;;
13345;SDS011;6742;48.036;15.780;2023-04-03T06:21:33;3.90;;;3.07;;
13345;SDS011;6742;48.036;15.780;2023-04-03T06:24:02;4.90;;;3.30;;
13345;SDS011;6742;48.036;15.780;2023-04-03T06:26:29;6.27;;;3.20;;
13345;SDS011;6742;48.036;15.780;2023-04-03T06:28:56;3.40;;;2.50;;
13345;SDS011;6742;48.036;15.780;2023-04-03T06:31:22;3.17;;;2.87;;
13345;SDS011;6742;48.036;15.780;2023-04-03T06:33:49;3.70;;;2.83;;
13345;SDS011;6742;48.036;15.780;2023-04-03T06:36:17;4.17;;;3.07;;
13345;SDS011;6742;48.036;15.780;2023-04-03T06:38:46;3.10;;;2.75;;
13345;SDS011;6742;48.036;15.780;2023-04-03T06:41:15;2.83;;;2.50;;
13345;SDS011;6742;48.036;15.780;2023-04-03T06:43:44;3.03;;;2.73;;
13345;SDS011;6742;48.036;15.780;2023-04-03T06:46:14;3.90;;;2.60;;
13345;SDS011;6742;48.036;15.780;2023-04-03T06:48:42;3.73;;;2.87;;
13345;SDS011;6742;48.036;15.780;2023-04-03T06:51:20;3.10;;;2.80;;
13345;SDS011;6742;48.036;15.780;2023-04-03T06:53:48;3.20;;;2.67;;
13345;SDS011;6742;48.036;15.780;2023-04-03T06:56:18;7.03;;;2.93;;
13345;SDS011;6742;48.036;15.780;2023-04-03T06:58:45;4.50;;;3.00;;
13345;SDS011;6742;48.036;15.780;2023-04-03T07:01:13;4.30;;;2.90;;
13345;SDS011;6742;48.036;15.780;2023-04-03T07:03:42;3.23;;;2.63;;
13345;SDS011;6742;48.036;15.780;2023-04-03T07:06:10;3.43;;;2.70;;
13345;SDS011;6742;48.036;15.780;2023-04-03T07:08:39;4.17;;;2.90;;
13345;SDS011;6742;48.036;15.780;2023-04-03T07:11:07;3.67;;;2.60;;
13345;SDS011;6742;48.036;15.780;2023-04-03T07:13:38;5.87;;;3.33;;
13345;SDS011;6742;48.036;15.780;2023-04-03T07:16:06;4.37;;;3.30;;
13345;SDS011;6742;48.036;15.780;2023-04-03T07:18:34;3.87;;;3.17;;
13345;SDS011;6742;48.036;15.780;2023-04-03T07:21:01;3.77;;;2.87;;
13345;SDS011;6742;48.036;15.780;2023-04-03T07:23:29;4.53;;;2.80;;
13345;SDS011;6742;48.036;15.780;2023-04-03T07:25:56;2.90;;;2.50;;
13345;SDS011;6742;48.036;15.780;2023-04-03T07:28:23;3.83;;;2.90;;
13345;SDS011;6742;48.036;15.780;2023-04-03T07:30:53;5.63;;;3.63;;
13345;SDS011;6742;48.036;15.780;2023-04-03T07:33:25;3.90;;;2.90;;
13345;SDS011;6742;48.036;15.780;2023-04-03T07:35:52;4.23;;;3.07;;
13345;SDS011;6742;48.036;15.780;2023-04-03T07:38:19;4.83;;;3.70;;
13345;SDS011;6742;48.036;15.780;2023-04-03T07:40:47;4.10;;;3.10;;
13345;SDS011;6742;48.036;15.780;2023-04-03T07:43:15;4.37;;;3.20;;
13345;SDS011;6742;48.036;15.780;2023-04-03T07:45:43;3.17;;;2.47;;
13345;SDS011;6742;48.036;15.780;2023-04-03T07:48:12;5.23;;;3.43;;
13345;SDS011;6742;48.036;15.780;2023-04-03T07:50:39;3.63;;;2.87;;
13345;SDS011;6742;48.036;15.780;2023-04-03T07:53:06;3.90;;;2.90;;
13345;SDS011;6742;48.036;15.780;2023-04-03T07:55:33;3.33;;;3.03;;
13345;SDS011;6742;48.036;15.780;2023-04-03T07:58:07;7.40;;;4.50;;
13345;SDS011;6742;48.036;15.780;2023-04-03T08:00:35;5.43;;;3.67;;
13345;SDS011;6742;48.036;15.780;2023-04-03T08:03:02;3.37;;;2.90;;
13345;SDS011;6742;48.036;15.780;2023-04-03T08:05:31;3.33;;;2.87;;
13345;SDS011;6742;48.036;15.780;2023-04-03T08:08:02;2.87;;;2.33;;
13345;SDS011;6742;48.036;15.780;2023-04-03T08:10:29;3.53;;;2.77;;
13345;SDS011;6742;48.036;15.780;2023-04-03T08:12:56;3.37;;;2.70;;
13345;SDS011;6742;48.036;15.780;2023-04-03T08:15:23;4.47;;;2.37;;
13345;SDS011;6742;48.036;15.780;2023-04-03T08:17:50;3.70;;;2.60;;
13345;SDS011;6742;48.036;15.780;2023-04-03T08:20:17;3.73;;;2.80;;
13345;SDS011;6742;48.036;15.780;2023-04-03T08:22:46;2.57;;;1.87;;
13345;SDS011;6742;48.036;15.780;2023-04-03T08:25:13;2.53;;;2.20;;
13345;SDS011;6742;48.036;15.780;2023-04-03T08:27:40;3.30;;;2.37;;
13345;SDS011;6742;48.036;15.780;2023-04-03T08:30:07;3.23;;;2.13;;
13345;SDS011;6742;48.036;15.780;2023-04-03T08:32:35;2.67;;;2.20;;
13345;SDS011;6742;48.036;15.780;2023-04-03T08:35:02;2.73;;;2.00;;
13345;SDS011;6742;48.036;15.780;2023-04-03T08:37:29;3.30;;;1.87;;
13345;SDS011;6742;48.036;15.780;2023-04-03T08:39:58;3.00;;;2.70;;
13345;SDS011;6742;48.036;15.780;2023-04-03T08:42:30;3.40;;;2.20;;
13345;SDS011;6742;48.036;15.780;2023-04-03T08:45:07;2.30;;;2.10;;
13345;SDS011;6742;48.036;15.780;2023-04-03T08:47:38;2.97;;;2.03;;
13345;SDS011;6742;48.036;15.780;2023-04-03T08:50:10;4.28;;;2.80;;
13345;SDS011;6742;48.036;15.780;2023-04-03T08:52:41;7.70;;;5.30;;
13345;SDS011;6742;48.036;15.780;2023-04-03T08:55:16;4.05;;;3.05;;
13345;SDS011;6742;48.036;15.780;2023-04-03T08:57:50;2.72;;;2.05;;
13345;SDS011;6742;48.036;15.780;2023-04-03T09:00:23;1.75;;;1.65;;
13345;SDS011;6742;48.036;15.780;2023-04-03T09:02:53;2.43;;;2.00;;
13345;SDS011;6742;48.036;15.780;2023-04-03T09:05:25;4.13;;;2.10;;
13345;SDS011;6742;48.036;15.780;2023-04-03T09:08:04;2.67;;;1.83;;
13345;SDS011;6742;48.036;15.780;2023-04-03T09:10:37;2.10;;;1.70;;
13345;SDS011;6742;48.036;15.780;2023-04-03T09:13:08;2.30;;;1.70;;
13345;SDS011;6742;48.036;15.780;2023-04-03T09:15:46;3.10;;;2.17;;
13345;SDS011;6742;48.036;15.780;2023-04-03T09:18:15;2.33;;;1.90;;
13345;SDS011;6742;48.036;15.780;2023-04-03T09:20:49;1.60;;;1.50;;
13345;SDS011;6742;48.036;15.780;2023-04-03T09:23:24;2.30;;;1.57;;
13345;SDS011;6742;48.036;15.780;2023-04-03T09:26:00;2.23;;;1.60;;
13345;SDS011;6742;48.036;15.780;2023-04-03T09:28:31;2.25;;;1.83;;
13345;SDS011;6742;48.036;15.780;2023-04-03T09:31:00;2.58;;;1.83;;
13345;SDS011;6742;48.036;15.780;2023-04-03T09:33:28;3.90;;;1.85;;
13345;SDS011;6742;48.036;15.780;2023-04-03T09:35:56;3.03;;;2.17;;
13345;SDS011;6742;48.036;15.780;2023-04-03T09:38:23;2.50;;;2.00;;
13345;SDS011;6742;48.036;15.780;2023-04-03T09:40:51;2.08;;;1.88;;
13345;SDS011;6742;48.036;15.780;2023-04-03T09:43:32;2.60;;;2.22;;
13345;SDS011;6742;48.036;15.780;2023-04-03T09:48:49;2.28;;;1.88;;
13345;SDS011;6742;48.036;15.780;2023-04-03T09:51:18;3.92;;;2.25;;
13345;SDS011;6742;48.036;15.780;2023-04-03T09:53:45;2.63;;;1.73;;
13345;SDS011;6742;48.036;15.780;2023-04-03T09:56:23;2.63;;;1.80;;
13345;SDS011;6742;48.036;15.780;2023-04-03T09:58:53;2.70;;;1.98;;
13345;SDS011;6742;48.036;15.780;2023-04-03T10:01:38;4.07;;;1.80;;
13345;SDS011;6742;48.036;15.780;2023-04-03T10:04:09;2.63;;;2.10;;
13345;SDS011;6742;48.036;15.780;2023-04-03T10:06:37;4.53;;;3.00;;
13345;SDS011;6742;48.036;15.780;2023-04-03T10:09:15;2.63;;;1.83;;
13345;SDS011;6742;48.036;15.780;2023-04-03T10:11:58;2.00;;;1.70;;
13345;SDS011;6742;48.036;15.780;2023-04-03T10:14:31;2.40;;;1.55;;
13345;SDS011;6742;48.036;15.780;2023-04-03T10:17:02;2.85;;;1.90;;
13345;SDS011;6742;48.036;15.780;2023-04-03T10:19:41;2.95;;;1.90;;
13345;SDS011;6742;48.036;15.780;2023-04-03T10:22:15;3.58;;;1.95;;
13345;SDS011;6742;48.036;15.780;2023-04-03T10:24:52;2.60;;;1.80;;
13345;SDS011;6742;48.036;15.780;2023-04-03T10:27:29;2.13;;;1.73;;
13345;SDS011;6742;48.036;15.780;2023-04-03T10:30:09;2.45;;;1.80;;
13345;SDS011;6742;48.036;15.780;2023-04-03T10:32:53;3.00;;;1.80;;
13345;SDS011;6742;48.036;15.780;2023-04-03T10:35:31;3.70;;;2.13;;
13345;SDS011;6742;48.036;15.780;2023-04-03T10:38:07;2.78;;;1.80;;
13345;SDS011;6742;48.036;15.780;2023-04-03T10:40:43;2.47;;;1.80;;
13345;SDS011;6742;48.036;15.780;2023-04-03T10:43:16;2.50;;;1.80;;
13345;SDS011;6742;48.036;15.780;2023-04-03T10:45:53;2.35;;;1.92;;
13345;SDS011;6742;48.036;15.780;2023-04-03T10:48:39;2.38;;;2.00;;
13345;SDS011;6742;48.036;15.780;2023-04-03T10:51:20;2.58;;;1.95;;
13345;SDS011;6742;48.036;15.780;2023-04-03T10:53:52;2.88;;;2.00;;
13345;SDS011;6742;48.036;15.780;2023-04-03T10:56:25;2.78;;;1.90;;
13345;SDS011;6742;48.036;15.780;2023-04-03T10:58:59;2.53;;;1.80;;
13345;SDS011;6742;48.036;15.780;2023-04-03T11:01:33;1.92;;;1.67;;
13345;SDS011;6742;48.036;15.780;2023-04-03T11:04:04;3.53;;;1.60;;
13345;SDS011;6742;48.036;15.780;2023-04-03T11:06:34;2.17;;;1.88;;
13345;SDS011;6742;48.036;15.780;2023-04-03T11:09:07;2.10;;;1.83;;
13345;SDS011;6742;48.036;15.780;2023-04-03T11:11:41;3.70;;;1.80;;
13345;SDS011;6742;48.036;15.780;2023-04-03T11:14:11;2.65;;;1.80;;
13345;SDS011;6742;48.036;15.780;2023-04-03T11:16:45;4.07;;;1.83;;
13345;SDS011;6742;48.036;15.780;2023-04-03T11:19:15;2.00;;;1.73;;
13345;SDS011;6742;48.036;15.780;2023-04-03T11:21:50;2.77;;;1.60;;
13345;SDS011;6742;48.036;15.780;2023-04-03T11:24:22;2.50;;;1.70;;
13345;SDS011;6742;48.036;15.780;2023-04-03T11:26:51;2.73;;;1.70;;
13345;SDS011;6742;48.036;15.780;2023-04-03T11:29:23;1.90;;;1.50;;
13345;SDS011;6742;48.036;15.780;2023-04-03T11:32:02;1.92;;;1.50;;
13345;SDS011;6742;48.036;15.780;2023-04-03T11:34:39;2.95;;;1.52;;
13345;SDS011;6742;48.036;15.780;2023-04-03T11:37:11;2.28;;;1.70;;
13345;SDS011;6742;48.036;15.780;2023-04-03T11:39:46;2.08;;;1.60;;
13345;SDS011;6742;48.036;15.780;2023-04-03T11:42:23;2.43;;;1.80;;
13345;SDS011;6742;48.036;15.780;2023-04-03T11:47:52;2.10;;;1.83;;
13345;SDS011;6742;48.036;15.780;2023-04-03T11:50:38;2.50;;;1.60;;
13345;SDS011;6742;48.036;15.780;2023-04-03T11:53:27;2.00;;;1.70;;
13345;SDS011;6742;48.036;15.780;2023-04-03T11:56:00;2.25;;;1.60;;
13345;SDS011;6742;48.036;15.780;2023-04-03T11:58:29;1.73;;;1.63;;
13345;SDS011;6742;48.036;15.780;2023-04-03T12:00:59;3.15;;;1.80;;
13345;SDS011;6742;48.036;15.780;2023-04-03T12:09:33;4.10;;;1.90;;
13345;SDS011;6742;48.036;15.780;2023-04-03T12:12:30;3.60;;;2.10;;
13345;SDS011;6742;48.036;15.780;2023-04-03T12:15:24;2.28;;;2.08;;
13345;SDS011;6742;48.036;15.780;2023-04-03T12:21:17;2.13;;;1.70;;
13345;SDS011;6742;48.036;15.780;2023-04-03T12:23:58;2.40;;;1.70;;
13345;SDS011;6742;48.036;15.780;2023-04-03T12:26:27;1.50;;;1.40;;
13345;SDS011;6742;48.036;15.780;2023-04-03T12:28:56;2.30;;;1.83;;
13345;SDS011;6742;48.036;15.780;2023-04-03T12:31:25;1.77;;;1.55;;
13345;SDS011;6742;48.036;15.780;2023-04-03T12:34:13;4.25;;;2.20;;
13345;SDS011;6742;48.036;15.780;2023-04-03T12:36:54;3.63;;;1.80;;
13345;SDS011;6742;48.036;15.780;2023-04-03T12:39:43;3.72;;;2.35;;
13345;SDS011;6742;48.036;15.780;2023-04-03T12:42:30;2.53;;;1.70;;
13345;SDS011;6742;48.036;15.780;2023-04-03T12:45:14;2.53;;;1.80;;
13345;SDS011;6742;48.036;15.780;2023-04-03T12:47:45;2.13;;;1.70;;
13345;SDS011;6742;48.036;15.780;2023-04-03T12:50:17;2.85;;;2.10;;
13345;SDS011;6742;48.036;15.780;2023-04-03T12:52:51;3.92;;;2.20;;
13345;SDS011;6742;48.036;15.780;2023-04-03T12:55:23;3.15;;;2.05;;
13345;SDS011;6742;48.036;15.780;2023-04-03T12:57:51;3.80;;;2.40;;
13345;SDS011;6742;48.036;15.780;2023-04-03T13:00:22;3.22;;;2.08;;
13345;SDS011;6742;48.036;15.780;2023-04-03T13:02:59;2.20;;;1.73;;
13345;SDS011;6742;48.036;15.780;2023-04-03T13:05:27;2.28;;;1.77;;
13345;SDS011;6742;48.036;15.780;2023-04-03T13:07:58;2.30;;;2.10;;
13345;SDS011;6742;48.036;15.780;2023-04-03T13:10:26;3.30;;;1.77;;
13345;SDS011;6742;48.036;15.780;2023-04-03T13:12:54;2.35;;;2.00;;
13345;SDS011;6742;48.036;15.780;2023-04-03T13:15:23;2.55;;;1.95;;
13345;SDS011;6742;48.036;15.780;2023-04-03T13:17:52;2.67;;;2.00;;
13345;SDS011;6742;48.036;15.780;2023-04-03T13:20:22;1.83;;;1.70;;
13345;SDS011;6742;48.036;15.780;2023-04-03T13:22:53;2.90;;;1.75;;
13345;SDS011;6742;48.036;15.780;2023-04-03T13:25:26;1.90;;;1.70;;
13345;SDS011;6742;48.036;15.780;2023-04-03T13:27:55;5.43;;;2.92;;
13345;SDS011;6742;48.036;15.780;2023-04-03T13:30:29;3.97;;;1.70;;
13345;SDS011;6742;48.036;15.780;2023-04-03T13:32:58;2.53;;;1.85;;
13345;SDS011;6742;48.036;15.780;2023-04-03T13:35:28;2.00;;;1.67;;
13345;SDS011;6742;48.036;15.780;2023-04-03T13:38:01;3.63;;;2.70;;
13345;SDS011;6742;48.036;15.780;2023-04-03T13:40:30;3.55;;;2.35;;
13345;SDS011;6742;48.036;15.780;2023-04-03T13:43:01;1.73;;;1.60;;
13345;SDS011;6742;48.036;15.780;2023-04-03T13:45:30;2.58;;;1.90;;
13345;SDS011;6742;48.036;15.780;2023-04-03T13:48:08;3.03;;;1.85;;
13345;SDS011;6742;48.036;15.780;2023-04-03T13:50:52;3.72;;;1.83;;
13345;SDS011;6742;48.036;15.780;2023-04-03T13:53:24;2.05;;;1.58;;
13345;SDS011;6742;48.036;15.780;2023-04-03T13:55:56;3.60;;;2.28;;
13345;SDS011;6742;48.036;15.780;2023-04-03T13:58:26;2.97;;;2.07;;
13345;SDS011;6742;48.036;15.780;2023-04-03T14:00:56;2.60;;;1.90;;
13345;SDS011;6742;48.036;15.780;2023-04-03T14:03:28;2.97;;;2.03;;
13345;SDS011;6742;48.036;15.780;2023-04-03T14:05:57;2.53;;;1.80;;
13345;SDS011;6742;48.036;15.780;2023-04-03T14:08:26;3.75;;;2.00;;
13345;SDS011;6742;48.036;15.780;2023-04-03T14:10:53;2.33;;;1.80;;
13345;SDS011;6742;48.036;15.780;2023-04-03T14:13:20;2.25;;;1.80;;
13345;SDS011;6742;48.036;15.780;2023-04-03T14:15:47;2.65;;;1.95;;
13345;SDS011;6742;48.036;15.780;2023-04-03T14:18:16;3.75;;;1.90;;
13345;SDS011;6742;48.036;15.780;2023-04-03T14:20:44;2.63;;;1.90;;
13345;SDS011;6742;48.036;15.780;2023-04-03T14:23:12;2.85;;;2.00;;
13345;SDS011;6742;48.036;15.780;2023-04-03T14:25:43;2.80;;;1.92;;
13345;SDS011;6742;48.036;15.780;2023-04-03T14:28:14;2.40;;;1.90;;
13345;SDS011;6742;48.036;15.780;2023-04-03T14:30:43;2.40;;;1.60;;
13345;SDS011;6742;48.036;15.780;2023-04-03T14:33:13;1.90;;;1.70;;
13345;SDS011;6742;48.036;15.780;2023-04-03T14:35:41;2.83;;;1.77;;
13345;SDS011;6742;48.036;15.780;2023-04-03T14:38:20;10.55;;;2.00;;
13345;SDS011;6742;48.036;15.780;2023-04-03T14:40:51;2.95;;;1.92;;
13345;SDS011;6742;48.036;15.780;2023-04-03T14:43:19;3.50;;;1.90;;
13345;SDS011;6742;48.036;15.780;2023-04-03T14:45:47;1.75;;;1.40;;
13345;SDS011;6742;48.036;15.780;2023-04-03T14:48:15;2.50;;;1.95;;
13345;SDS011;6742;48.036;15.780;2023-04-03T14:50:45;2.23;;;1.80;;
13345;SDS011;6742;48.036;15.780;2023-04-03T14:53:12;5.67;;;2.83;;
13345;SDS011;6742;48.036;15.780;2023-04-03T14:55:41;3.78;;;2.35;;
13345;SDS011;6742;48.036;15.780;2023-04-03T14:58:15;2.53;;;2.10;;
13345;SDS011;6742;48.036;15.780;2023-04-03T15:00:44;3.83;;;2.70;;
13345;SDS011;6742;48.036;15.780;2023-04-03T15:03:12;3.20;;;2.10;;
13345;SDS011;6742;48.036;15.780;2023-04-03T15:05:41;2.70;;;2.03;;
13345;SDS011;6742;48.036;15.780;2023-04-03T15:08:13;3.40;;;2.25;;
13345;SDS011;6742;48.036;15.780;2023-04-03T15:10:45;2.65;;;1.80;;
13345;SDS011;6742;48.036;15.780;2023-04-03T15:13:13;4.03;;;1.95;;
13345;SDS011;6742;48.036;15.780;2023-04-03T15:15:41;2.63;;;2.30;;
13345;SDS011;6742;48.036;15.780;2023-04-03T15:18:10;2.13;;;1.55;;
13345;SDS011;6742;48.036;15.780;2023-04-03T15:20:41;2.50;;;1.60;;